Terminal Aerodrome Forecast
Issued by NWS

Home | Current Version | Previous Version | Text Only | Print | Product List | Glossary On
Versions: 1 2 3 4 5 6 7 8 9 10 11 12 13 14 15 16
000
FTUS44 KTSA 230520
TAFFYV
TAF
KFYV 230520Z 2306/2406 00000KT 3SM BR SKC
      TEMPO 2306/2310 3/4SM BR
     FM231300 21003KT P6SM SKC
     FM231700 27015G22KT P6SM SKC
     FM240200 31008KT P6SM SKC=

USA.gov is the U.S. government's official web portal to all federal, state and local government web resources and services.